Terminal Aerodrome Forecast
Issued by NWS

Home | Current Version | Previous Version | Text Only | Print | Product List | Glossary On
Versions: 1 2 3 4 5 6 7 8 9 10 11 12 13 14 15 16 17 18 19 20 21 22 23 24 25 26 27 28 29 30 31 32 33
000
FTUS44 KMOB 302300
TAFBFM
TAF
KBFM 302337Z 0100/0124 04005KT P6SM FEW030
     FM010300 VRB03KT P6SM BKN015
     FM011000 00000KT 4SM BR OVC008
     FM011500 08006KT P6SM BKN015=

USA.gov is the U.S. government's official web portal to all federal, state and local government web resources and services.